Wetterdaten: aktuell Samstag, 25.06.2016 06:30
Datum Zeit Temperatur Feuchte Luftdruck Regen Wind Richtung Richtung Taupunkt Windchill
25.06.2016 06:30 17,2 C 94 % 1012,3 hPa 0,4 l/m 0,0 km/h (0 Bft) - - 0 16,2 C 17,2 C
25.06.2016 05:30 17,3 C 93 % 1012,3 hPa 1,4 l/m 0,0 km/h (0 Bft) - - 0 16,2 C 17,3 C
25.06.2016 04:30 17,3 C 92 % 1012,3 hPa 0,0 l/m 0,0 km/h (0 Bft) - - 0 16,0 C 17,3 C
25.06.2016 03:30 17,4 C 90 % 1013,3 hPa 0,0 l/m 0,0 km/h (0 Bft) - - 0 15,7 C 17,4 C
25.06.2016 02:30 17,7 C 88 % 1013,3 hPa 0,0 l/m 0,0 km/h (0 Bft) - - 0 15,7 C 17,7 C
25.06.2016 01:30 18,3 C 87 % 1014,2 hPa 0,0 l/m 0,0 km/h (0 Bft) - - 0 16,1 C 18,3 C
25.06.2016 00:30 19,0 C 86 % 1014,2 hPa 0,0 l/m 0,0 km/h (0 Bft) - - 0 16,6 C 19,0 C
24.06.2016 23:30 19,5 C 83 % 1014,1 hPa 0,0 l/m 0,0 km/h (0 Bft) - - 0 16,5 C 19,5 C
24.06.2016 22:30 20,8 C 81 % 1015,1 hPa 0,0 l/m 0,0 km/h (0 Bft) - - 0 17,4 C 20,8 C
24.06.2016 21:30 22,0 C 78 % 1013,9 hPa 0,0 l/m 0,0 km/h (0 Bft) - - 0 18,0 C 22,0 C
24.06.2016 20:30 22,7 C 76 % 1013,9 hPa 0,0 l/m 0,0 km/h (0 Bft) - - 0 18,2 C 22,7 C
24.06.2016 19:30 24,4 C 72 % 1013,7 hPa 0,0 l/m 0,0 km/h (0 Bft) - - 0 19,0 C 24,4 C
24.06.2016 18:09 25,9 C 68 % 1013,6 hPa 0,0 l/m 0,0 km/h (0 Bft) - - 0 19,5 C 25,9 C
24.06.2016 17:09 26,1 C 71 % 1013,6 hPa 0,0 l/m 0,0 km/h (0 Bft) - - 0 20,4 C 26,1 C
24.06.2016 16:09 24,0 C 77 % 1014,8 hPa 0,0 l/m 0,0 km/h (0 Bft) - - 0 19,7 C 24,0 C
24.06.2016 15:09 24,4 C 79 % 1014,8 hPa 0,0 l/m 0,0 km/h (0 Bft) - - 0 20,5 C 24,4 C
24.06.2016 14:09 25,0 C 75 % 1013,7 hPa 0,0 l/m 0,0 km/h (0 Bft) - - 0 20,2 C 25,0 C
24.06.2016 13:09 25,2 C 75 % 1013,7 hPa 0,0 l/m 0,0 km/h (0 Bft) - - 0 20,4 C 25,2 C
24.06.2016 12:09 24,9 C 77 % 1013,7 hPa 0,0 l/m 0,0 km/h (0 Bft) - - 0 20,6 C 24,9 C
24.06.2016 11:09 23,7 C 81 % 1013,8 hPa 0,0 l/m 0,0 km/h (0 Bft) - - 0 20,2 C 23,7 C
24.06.2016 10:09 23,5 C 82 % 1013,8 hPa 0,0 l/m 0,0 km/h (0 Bft) - - 0 20,2 C 23,5 C
24.06.2016 09:09 20,6 C 90 % 1014,0 hPa 0,0 l/m 0,0 km/h (0 Bft) - - 0 18,9 C 20,6 C
24.06.2016 08:09 19,4 C 91 % 1013,1 hPa 0,0 l/m 0,0 km/h (0 Bft) - - 0 17,9 C 19,4 C
24.06.2016 07:09 19,4 C 90 % 1014,1 hPa 0,0 l/m 0,0 km/h (0 Bft) - - 0 17,7 C 19,4 C
24.06.2016 07:00 19,4 C 89 % 1014,1 hPa 0,0 l/m 0,0 km/h (0 Bft) - - 0 17,5 C 19,4 C
_ Min-Zeit 06:21 17:42 07:57 - 07:00 - - 02:33 06:21
Minimum _ 17,2 C 65 % 1012,1 hPa - 0,0 km/h (0 Bft) - - 15,6 C 17,2 C
_ Max-Zeit 17:30 06:06 01:18 04:54 07:00 - - 13:24 17:30
Maximum _ 27,1 C 94 % 1015,2 hPa 0,4 l/m 0,0 km/h
- - (0 Bft)
- - 20,9 C 27,1 C
Durchschnitt _ 21,5 C 82 % 1013,9 hPa #1,8 l/m 0,0 km/h (0 Bft) - - - 18,2 C 21,5 C